Time;durP1;ratioP1;P1;durP2;ratioP2;P2;SDS_P1;SDS_P2;PMS_P1;PMS_P2;Temp;Humidity;BMP_temperature;BMP_pressure;BME280_temperature;BME280_humidity;BME280_pressure;Samples;Min_cycle;Max_cycle;Signal;HPM_P1;HPM_P2
2021/08/22 00:00:05;;;;;;;7.95;5.13;;;;;;;19.50;60.68;97644.09;5070771;28;20028;-71
2021/08/22 00:02:30;;;;;;;11.95;5.40;;;;;;;19.33;60.72;97643.81;5084958;28;20032;-73
2021/08/22 00:04:57;;;;;;;6.07;4.82;;;;;;;19.19;61.32;97646.13;5070624;28;20032;-72
2021/08/22 00:07:23;;;;;;;8.73;4.93;;;;;;;19.23;61.25;97645.69;5080803;28;20115;-71
2021/08/22 00:09:49;;;;;;;9.23;5.35;;;;;;;19.19;61.44;97646.13;5087002;28;20047;-72
2021/08/22 00:12:15;;;;;;;12.70;5.32;;;;;;;19.19;61.36;97638.00;5087352;28;20032;-72
2021/08/22 00:14:40;;;;;;;10.48;4.90;;;;;;;19.29;60.76;97631.53;5071498;28;20074;-72
2021/08/22 00:17:07;;;;;;;8.20;5.00;;;;;;;19.35;61.31;97630.06;5053899;28;20034;-72
2021/08/22 00:19:32;;;;;;;13.70;5.25;;;;;;;19.36;62.32;97627.22;5067613;28;20051;-72
2021/08/22 00:21:58;;;;;;;7.55;5.13;;;;;;;19.36;62.29;97629.09;5070399;28;20487;-72
2021/08/22 00:24:23;;;;;;;7.60;5.55;;;;;;;19.43;61.92;97636.53;5069909;28;20492;-72
2021/08/22 00:26:49;;;;;;;7.30;4.95;;;;;;;19.42;62.05;97636.66;5071685;28;20032;-72
2021/08/22 00:29:14;;;;;;;8.20;5.60;;;;;;;19.46;62.23;97638.09;5053505;28;20021;-71
2021/08/22 00:31:40;;;;;;;13.35;6.15;;;;;;;19.45;62.13;97639.09;5071743;28;20377;-73
2021/08/22 00:34:05;;;;;;;7.28;5.13;;;;;;;19.45;61.98;97636.38;5070311;28;20021;-72
2021/08/22 00:36:31;;;;;;;7.93;4.88;;;;;;;19.47;62.25;97646.06;5071273;28;20036;-71
2021/08/22 00:38:56;;;;;;;8.23;5.15;;;;;;;19.42;62.74;97653.81;5070251;28;20559;-72
2021/08/22 00:41:22;;;;;;;10.95;5.55;;;;;;;19.36;62.90;97645.38;5079013;28;20381;-72
2021/08/22 00:43:47;;;;;;;12.77;5.70;;;;;;;19.32;63.21;97649.34;5071233;28;20056;-72
2021/08/22 00:46:14;;;;;;;15.07;5.65;;;;;;;19.18;63.58;97647.97;5070219;28;20024;-71
2021/08/22 00:48:41;;;;;;;9.02;5.57;;;;;;;19.10;63.81;97652.44;5070052;28;20032;-71
2021/08/22 00:51:07;;;;;;;12.23;5.68;;;;;;;18.94;64.37;97656.59;5053334;28;20024;-72
2021/08/22 00:53:32;;;;;;;12.55;6.10;;;;;;;18.84;65.14;97653.03;5079948;28;20462;-71
2021/08/22 00:56:03;;;;;;;6.80;5.35;;;;;;;18.80;65.23;97651.59;5070182;28;20056;-72
2021/08/22 00:58:29;;;;;;;9.23;5.82;;;;;;;18.77;65.76;97651.88;5070114;28;20028;-72
2021/08/22 01:00:55;;;;;;;14.18;5.65;;;;;;;18.78;66.10;97650.88;5053308;28;20024;-72
2021/08/22 01:03:34;;;;;;;8.05;5.47;;;;;;;18.73;66.45;97639.63;5069586;28;20093;-72
2021/08/22 01:06:15;;;;;;;11.45;6.35;;;;;;;18.72;66.95;97662.28;5069835;28;20043;-72
2021/08/22 01:08:42;;;;;;;14.52;5.75;;;;;;;18.66;67.12;97654.75;5071020;28;20028;-71
2021/08/22 01:11:16;;;;;;;13.48;6.38;;;;;;;18.78;66.43;97648.19;5070080;28;20024;-72
2021/08/22 01:13:44;;;;;;;14.52;5.80;;;;;;;18.91;66.05;97659.59;5078194;28;20029;-73
2021/08/22 01:16:13;;;;;;;11.18;5.65;;;;;;;18.92;66.31;97650.44;5069752;28;20556;-72
2021/08/22 01:18:40;;;;;;;14.65;5.75;;;;;;;18.97;66.02;97651.88;5069877;28;20466;-72
2021/08/22 01:21:19;;;;;;;13.20;5.78;;;;;;;19.00;66.00;97663.28;5071219;28;20039;-72
2021/08/22 01:23:54;;;;;;;9.45;5.70;;;;;;;18.93;65.87;97649.44;5056483;28;20044;-73
2021/08/22 01:26:25;;;;;;;9.00;6.07;;;;;;;18.90;65.50;97649.72;5090887;28;20027;-72
2021/08/22 01:28:52;;;;;;;14.50;5.47;;;;;;;18.81;66.03;97650.59;5054626;28;20423;-72
2021/08/22 01:31:19;;;;;;;6.40;5.40;;;;;;;18.72;66.52;97654.16;5073508;28;20020;-72
2021/08/22 01:33:47;;;;;;;7.13;5.43;;;;;;;18.69;66.38;97649.03;5056853;28;20024;-72
2021/08/22 01:36:13;;;;;;;12.85;6.47;;;;;;;18.66;66.76;97657.44;5073712;28;20039;-72
2021/08/22 01:38:39;;;;;;;8.88;5.80;;;;;;;18.57;66.79;97652.88;5073450;28;20032;-72
2021/08/22 01:41:05;;;;;;;7.95;5.57;;;;;;;18.46;67.28;97658.38;5073471;28;20416;-72
2021/08/22 01:43:32;;;;;;;9.60;5.55;;;;;;;18.34;67.52;97641.41;5056609;28;20027;-73
2021/08/22 01:46:02;;;;;;;9.23;5.55;;;;;;;18.31;67.53;97647.13;5073468;28;20507;-72
2021/08/22 01:48:28;;;;;;;8.82;6.00;;;;;;;18.34;68.02;97656.81;5073309;28;20093;-73
2021/08/22 01:50:58;;;;;;;7.97;5.30;;;;;;;18.23;68.22;97646.09;5073187;28;20032;-72
2021/08/22 01:53:24;;;;;;;14.43;6.10;;;;;;;18.18;68.67;97659.22;5073390;28;20052;-72
2021/08/22 01:55:51;;;;;;;8.18;5.45;;;;;;;18.11;68.86;97641.81;5073064;28;20075;-72
2021/08/22 01:58:16;;;;;;;14.05;6.25;;;;;;;18.05;69.16;97645.06;5073438;28;20025;-72
2021/08/22 02:00:42;;;;;;;10.70;6.22;;;;;;;18.02;69.61;97650.75;5074367;28;20110;-72
2021/08/22 02:03:16;;;;;;;10.77;5.70;;;;;;;18.07;69.44;97648.50;5073014;28;20024;-72
2021/08/22 02:05:41;;;;;;;11.10;6.22;;;;;;;18.07;69.37;97653.91;5074216;28;20024;-72
2021/08/22 02:08:19;;;;;;;6.72;5.63;;;;;;;17.96;70.25;97651.31;5074188;28;20024;-72
2021/08/22 02:10:51;;;;;;;7.85;5.88;;;;;;;17.90;70.73;97641.91;5090385;28;20024;-71
2021/08/22 02:13:17;;;;;;;8.82;5.65;;;;;;;17.94;70.15;97639.75;5073030;28;20017;-72
2021/08/22 02:15:44;;;;;;;14.05;6.00;;;;;;;17.91;70.66;97643.59;5078157;28;20024;-72
2021/08/22 02:18:12;;;;;;;11.43;5.88;;;;;;;17.85;70.32;97647.72;5073079;28;20111;-72
2021/08/22 02:20:39;;;;;;;11.88;6.45;;;;;;;17.77;70.24;97649.41;5074048;28;20021;-73
2021/08/22 02:23:05;;;;;;;8.88;5.68;;;;;;;17.71;70.57;97645.41;5072702;28;20024;-72
2021/08/22 02:25:31;;;;;;;11.88;5.93;;;;;;;17.61;71.16;97647.19;5071524;28;20593;-72
2021/08/22 02:27:58;;;;;;;10.65;6.00;;;;;;;17.55;71.56;97645.03;5071225;28;20059;-73
2021/08/22 02:30:23;;;;;;;8.80;5.97;;;;;;;17.46;72.32;97640.41;5071470;28;20024;-72
2021/08/22 02:32:50;;;;;;;15.40;6.70;;;;;;;17.47;72.36;97642.13;5087781;28;20457;-73
2021/08/22 02:35:15;;;;;;;12.68;5.85;;;;;;;17.49;72.50;97642.84;5071609;28;20036;-72
2021/08/22 02:37:41;;;;;;;10.73;6.10;;;;;;;17.49;72.73;97642.84;5054747;28;20040;-72
2021/08/22 02:40:07;;;;;;;15.10;6.38;;;;;;;17.58;72.53;97641.22;5071622;28;20052;-73
2021/08/22 02:42:33;;;;;;;8.95;6.10;;;;;;;17.56;72.64;97640.50;5071129;28;20453;-72
2021/08/22 02:44:58;;;;;;;20.50;6.70;;;;;;;17.60;72.37;97642.78;5088065;28;20147;-71
2021/08/22 02:47:24;;;;;;;12.48;5.85;;;;;;;17.63;71.76;97641.63;5072393;28;20408;-72
2021/08/22 02:49:49;;;;;;;9.98;6.10;;;;;;;17.48;72.66;97640.25;5072431;28;20028;-72
2021/08/22 02:52:15;;;;;;;15.23;6.22;;;;;;;17.50;72.98;97652.69;5071368;28;20503;-72
2021/08/22 02:54:41;;;;;;;12.55;6.20;;;;;;;17.45;72.59;97633.28;5072439;28;20031;-72
2021/08/22 02:57:06;;;;;;;15.40;5.85;;;;;;;17.44;72.32;97634.28;5071038;28;20021;-72
2021/08/22 02:59:32;;;;;;;10.02;5.88;;;;;;;17.35;72.65;97632.38;5072418;28;20039;-71
2021/08/22 03:01:57;;;;;;;10.98;6.30;;;;;;;17.15;73.55;97634.13;5070661;28;20020;-71
2021/08/22 03:04:23;;;;;;;8.75;6.07;;;;;;;17.12;74.32;97649.75;5072000;28;20499;-70
2021/08/22 03:06:49;;;;;;;8.30;6.05;;;;;;;17.12;74.17;97637.09;5054047;28;20115;-71
2021/08/22 03:09:14;;;;;;;15.07;6.50;;;;;;;17.11;74.56;97646.19;5070971;28;20024;-72
2021/08/22 03:11:40;;;;;;;12.65;6.22;;;;;;;17.07;74.53;97643.91;5070890;28;20515;-71
2021/08/22 03:14:05;;;;;;;8.95;6.05;;;;;;;17.04;74.77;97638.75;5070601;28;20150;-71
2021/08/22 03:16:31;;;;;;;9.55;5.95;;;;;;;17.09;74.64;97644.63;5048545;28;20036;-71
2021/08/22 03:18:57;;;;;;;10.52;6.38;;;;;;;17.10;74.54;97644.47;5087304;28;20423;-71
2021/08/22 03:21:23;;;;;;;20.55;6.38;;;;;;;17.09;74.39;97647.31;5070537;28;20029;-71
2021/08/22 03:23:48;;;;;;;9.75;6.57;;;;;;;17.13;74.17;97648.78;5022558;28;1377473;-72
2021/08/22 03:26:14;;;;;;;9.43;6.30;;;;;;;17.19;74.11;97656.34;5088355;28;20464;-71
2021/08/22 03:28:41;;;;;;;12.55;5.90;;;;;;;17.23;74.05;97655.94;5071391;28;20416;-70
2021/08/22 03:31:06;;;;;;;12.43;6.50;;;;;;;17.23;73.97;97660.47;5071357;28;20039;-71
2021/08/22 03:33:32;;;;;;;10.27;5.60;;;;;;;17.21;73.97;97657.06;5071348;28;20491;-70
2021/08/22 03:35:57;;;;;;;10.88;5.85;;;;;;;17.17;73.75;97651.06;5072362;28;20031;-71
2021/08/22 03:38:23;;;;;;;9.18;6.07;;;;;;;17.16;73.69;97659.31;5071339;28;20030;-72
2021/08/22 03:40:48;;;;;;;9.85;6.57;;;;;;;17.17;73.68;97656.47;5071424;28;20027;-71
2021/08/22 03:43:14;;;;;;;18.10;6.60;;;;;;;17.14;74.26;97661.28;5070053;28;20029;-72
2021/08/22 03:45:39;;;;;;;13.73;6.90;;;;;;;17.24;74.31;97664.91;5071052;28;20564;-71
2021/08/22 03:48:05;;;;;;;10.48;6.50;;;;;;;17.14;74.15;97653.16;5054235;28;20073;-71
2021/08/22 03:50:31;;;;;;;11.05;6.18;;;;;;;17.15;73.99;97663.00;5072344;28;20427;-71
2021/08/22 03:52:57;;;;;;;16.17;7.47;;;;;;;17.17;74.42;97677.22;5087757;28;20033;-72
2021/08/22 03:55:22;;;;;;;22.92;7.63;;;;;;;17.10;74.35;97670.66;5070816;28;20028;-72
2021/08/22 03:57:48;;;;;;;13.68;6.97;;;;;;;17.07;74.21;97673.63;5054106;28;20029;-72
2021/08/22 04:00:15;;;;;;;17.45;6.90;;;;;;;17.06;74.34;97669.22;5070662;28;20025;-71
2021/08/22 04:02:40;;;;;;;12.73;7.10;;;;;;;17.06;74.61;97680.03;5070536;28;20028;-71
2021/08/22 04:05:09;;;;;;;10.43;6.88;;;;;;;17.02;74.33;97670.44;5070779;28;20031;-72
2021/08/22 04:07:35;;;;;;;16.33;7.07;;;;;;;17.07;74.35;97679.03;5071905;28;20062;-71
2021/08/22 04:10:00;;;;;;;10.43;7.07;;;;;;;17.09;74.22;97679.75;5069900;28;20436;-72
2021/08/22 04:12:27;;;;;;;8.68;6.80;;;;;;;17.12;74.69;97684.91;5070083;28;20100;-72
2021/08/22 04:14:53;;;;;;;11.57;6.50;;;;;;;17.16;74.46;97676.41;5070679;28;20487;-71
2021/08/22 04:17:19;;;;;;;13.30;7.05;;;;;;;17.14;74.69;97674.78;5053439;28;20141;-71
2021/08/22 04:19:44;;;;;;;11.82;6.90;;;;;;;17.07;75.00;97677.16;5087529;28;20508;-72
2021/08/22 04:22:11;;;;;;;9.02;6.30;;;;;;;17.18;74.76;97681.66;5070398;28;20425;-72
2021/08/22 04:24:36;;;;;;;17.83;6.95;;;;;;;17.15;74.12;97682.78;5086884;28;20072;-72
2021/08/22 04:27:04;;;;;;;18.33;6.60;;;;;;;17.27;73.62;97688.97;5053433;28;20587;-72
2021/08/22 04:29:30;;;;;;;10.65;6.40;;;;;;;17.29;73.44;97687.00;5070165;28;20028;-72
2021/08/22 04:31:55;;;;;;;9.80;6.07;;;;;;;17.45;72.82;97692.78;5070307;28;20036;-71
2021/08/22 04:34:21;;;;;;;15.98;6.95;;;;;;;17.48;72.60;97692.50;5071400;28;20033;-71
2021/08/22 04:36:47;;;;;;;10.65;6.53;;;;;;;17.64;72.27;97692.06;5071182;28;20424;-72
2021/08/22 04:39:13;;;;;;;14.38;6.72;;;;;;;17.62;72.43;97689.50;5053163;28;20025;-71
2021/08/22 04:41:43;;;;;;;8.65;6.38;;;;;;;17.76;71.66;97699.97;5069952;28;20454;-71
2021/08/22 04:44:09;;;;;;;12.15;6.85;;;;;;;17.88;71.09;97696.16;5069813;28;20463;-72
2021/08/22 04:46:34;;;;;;;15.05;7.30;;;;;;;18.03;70.83;97701.19;5070119;28;20021;-71
2021/08/22 04:49:00;;;;;;;15.05;7.30;;;;;;;18.12;70.27;97695.81;5069995;28;20086;-72
2021/08/22 04:51:25;;;;;;;10.68;7.40;;;;;;;18.22;70.08;97699.41;5071152;28;20025;-72
2021/08/22 04:53:51;;;;;;;20.23;7.45;;;;;;;18.34;69.54;97698.28;5070107;28;20017;-72
2021/08/22 04:56:16;;;;;;;10.90;6.70;;;;;;;18.45;69.10;97704.59;5053102;28;20024;-72
2021/08/22 04:58:42;;;;;;;15.60;6.55;;;;;;;18.56;68.52;97708.06;5069881;28;20446;-73
2021/08/22 05:01:08;;;;;;;17.58;7.32;;;;;;;18.64;68.26;97710.91;5052951;28;20028;-72
2021/08/22 05:03:33;;;;;;;15.95;7.65;;;;;;;18.82;67.66;97706.53;5052653;28;20070;-73
2021/08/22 05:05:59;;;;;;;13.80;7.25;;;;;;;19.07;67.06;97715.09;5053208;28;20032;-72
2021/08/22 05:08:24;;;;;;;15.40;7.70;;;;;;;19.27;65.96;97719.47;5069991;28;20036;-73
2021/08/22 05:10:50;;;;;;;15.05;6.90;;;;;;;19.46;64.97;97717.63;5052942;28;20042;-72
2021/08/22 05:13:16;;;;;;;15.73;7.00;;;;;;;19.64;64.46;97716.88;5070707;28;20030;-72
2021/08/22 05:15:41;;;;;;;12.20;6.38;;;;;;;19.90;62.96;97718.78;5069403;28;20051;-72
2021/08/22 05:18:07;;;;;;;14.00;6.95;;;;;;;20.15;61.80;97727.28;5070824;28;20055;-73
2021/08/22 05:20:33;;;;;;;9.90;6.85;;;;;;;20.28;60.80;97731.38;5069427;28;20111;-74
2021/08/22 05:22:59;;;;;;;11.68;6.80;;;;;;;20.29;60.59;97715.94;5069554;28;20025;-73
2021/08/22 05:25:24;;;;;;;12.90;7.20;;;;;;;20.49;59.51;97725.66;5070302;28;20565;-73
2021/08/22 05:27:50;;;;;;;14.52;6.93;;;;;;;20.60;59.02;97722.75;5070652;28;20044;-72
2021/08/22 05:30:15;;;;;;;11.45;6.00;;;;;;;20.95;57.93;97717.34;5069051;28;20131;-73
2021/08/22 05:32:41;;;;;;;8.15;5.72;;;;;;;21.22;56.92;97721.03;5069371;28;20035;-72
2021/08/22 05:35:07;;;;;;;17.48;6.13;;;;;;;21.61;55.81;97725.09;5052149;28;20028;-71
2021/08/22 05:37:32;;;;;;;12.02;6.00;;;;;;;22.58;52.71;97715.56;5069259;28;20110;-72
2021/08/22 05:39:58;;;;;;;16.05;6.45;;;;;;;24.31;48.17;97717.16;5071043;28;20037;-72
2021/08/22 05:42:23;;;;;;;11.38;5.45;;;;;;;26.00;43.42;97717.88;5069189;28;20073;-72
2021/08/22 05:44:49;;;;;;;18.85;5.97;;;;;;;27.80;40.55;97716.97;5069242;28;20045;-72
2021/08/22 05:47:21;;;;;;;10.45;5.93;;;;;;;28.49;38.23;97702.22;5069561;28;20085;-72
2021/08/22 05:49:48;;;;;;;12.85;5.60;;;;;;;29.80;35.84;97704.56;5052577;28;20028;-72
2021/08/22 05:52:13;;;;;;;13.38;6.13;;;;;;;30.70;33.72;97702.97;5069518;28;20025;-72
2021/08/22 05:54:39;;;;;;;15.90;8.77;;;;;;;31.03;33.48;97706.47;5069226;28;20040;-72
2021/08/22 05:57:05;;;;;;;24.27;7.50;;;;;;;30.73;33.69;97705.31;5070626;28;20024;-72
2021/08/22 05:59:33;;;;;;;23.80;7.38;;;;;;;31.57;32.20;97703.19;5069143;28;20032;-73
2021/08/22 06:01:59;;;;;;;14.80;6.70;;;;;;;32.34;30.63;97699.97;5069530;28;20028;-71
2021/08/22 06:04:24;;;;;;;14.02;7.63;;;;;;;33.36;29.87;97710.28;5069019;28;20024;-72
2021/08/22 06:06:50;;;;;;;12.77;6.80;;;;;;;33.55;29.35;97711.94;5070152;28;20103;-72
2021/08/22 06:09:15;;;;;;;14.05;8.35;;;;;;;34.26;28.63;97706.31;5055999;28;20086;-72
2021/08/22 06:11:41;;;;;;;25.73;8.00;;;;;;;34.53;27.86;97700.25;5072579;28;20490;-73
2021/08/22 06:14:06;;;;;;;11.55;7.15;;;;;;;34.40;27.85;97698.56;5072647;28;20055;-72
2021/08/22 06:16:32;;;;;;;20.05;7.65;;;;;;;34.00;28.37;97705.88;5073895;28;20106;-73
2021/08/22 06:18:58;;;;;;;14.85;7.72;;;;;;;34.48;27.20;97689.88;5072655;28;20032;-73
2021/08/22 06:21:24;;;;;;;33.25;13.13;;;;;;;35.12;26.39;97693.53;5072554;28;20397;-73
2021/08/22 06:23:51;;;;;;;16.30;8.25;;;;;;;35.11;26.32;97691.84;5072412;28;20037;-73
2021/08/22 06:26:17;;;;;;;14.77;6.80;;;;;;;35.55;25.95;97695.78;5072466;28;20020;-73
2021/08/22 06:28:42;;;;;;;14.95;6.60;;;;;;;35.31;26.01;97683.91;5072296;28;20130;-73
2021/08/22 06:31:08;;;;;;;13.10;6.75;;;;;;;35.61;25.85;97686.44;5072766;28;20039;-73
2021/08/22 06:33:33;;;;;;;12.40;6.60;;;;;;;35.80;25.36;97685.13;5072340;28;20036;-73
2021/08/22 06:36:00;;;;;;;12.60;6.45;;;;;;;34.95;25.99;97678.72;5055739;28;20480;-73
2021/08/22 06:38:26;;;;;;;12.75;6.10;;;;;;;34.65;26.25;97690.00;5072274;28;20416;-73
2021/08/22 06:40:52;;;;;;;12.63;5.70;;;;;;;34.89;25.49;97688.03;5072434;28;20032;-73
2021/08/22 06:43:17;;;;;;;7.40;4.95;;;;;;;35.07;25.70;97679.50;5088829;28;20502;-73
2021/08/22 06:45:43;;;;;;;11.23;5.60;;;;;;;35.76;24.89;97684.78;5071988;28;20032;-73
2021/08/22 06:48:11;;;;;;;11.23;5.38;;;;;;;36.23;24.47;97679.75;5073270;28;20396;-73
2021/08/22 06:50:37;;;;;;;73.15;13.38;;;;;;;35.32;25.30;97688.38;5071825;28;20044;-72
2021/08/22 06:53:02;;;;;;;11.02;6.00;;;;;;;35.67;25.07;97686.28;5072377;28;20029;-73
2021/08/22 06:55:28;;;;;;;9.35;5.97;;;;;;;35.60;24.79;97682.81;5071875;28;20466;-74
2021/08/22 06:57:53;;;;;;;7.43;5.10;;;;;;;34.83;25.83;97679.56;5071959;28;20029;-72
2021/08/22 07:00:19;;;;;;;14.27;7.70;;;;;;;34.74;26.07;97682.97;5072022;28;20028;-73
2021/08/22 07:02:45;;;;;;;12.32;5.53;;;;;;;35.24;25.58;97681.28;5071361;28;20032;-72
2021/08/22 07:05:11;;;;;;;14.85;5.30;;;;;;;35.76;24.74;97673.66;5071649;28;20107;-73
2021/08/22 07:07:40;;;;;;;14.65;5.78;;;;;;;35.41;25.48;97681.31;5088423;28;20111;-73
2021/08/22 07:10:08;;;;;;;8.73;5.50;;;;;;;36.10;24.70;97682.03;5071968;28;20110;-72
2021/08/22 07:12:34;;;;;;;12.73;5.20;;;;;;;36.17;24.53;97685.50;5071700;28;20116;-73
2021/08/22 07:15:00;;;;;;;19.98;6.18;;;;;;;35.81;25.15;97687.66;5071746;28;20103;-73
2021/08/22 07:17:25;;;;;;;14.35;5.70;;;;;;;35.98;25.15;97690.44;5071566;28;20063;-73
2021/08/22 07:19:51;;;;;;;9.05;5.32;;;;;;;36.63;24.21;97690.69;5071704;28;20496;-72
2021/08/22 07:22:17;;;;;;;16.35;5.32;;;;;;;37.80;23.30;97679.84;5072788;28;20024;-71
2021/08/22 07:24:42;;;;;;;16.60;9.32;;;;;;;37.84;22.93;97689.38;5071030;28;20084;-72
2021/08/22 07:27:08;;;;;;;12.45;5.75;;;;;;;38.03;22.46;97684.25;5071504;28;20028;-72
2021/08/22 07:29:35;;;;;;;13.23;6.25;;;;;;;38.36;22.23;97688.75;5072484;28;20031;-74
2021/08/22 07:32:00;;;;;;;9.13;6.28;;;;;;;39.04;21.72;97673.75;5071376;28;20028;-72
2021/08/22 07:34:26;;;;;;;11.98;6.53;;;;;;;38.19;22.22;97685.22;5071189;28;20412;-72
2021/08/22 07:36:51;;;;;;;14.63;5.85;;;;;;;38.41;22.36;97669.22;5087924;28;20097;-72
2021/08/22 07:39:17;;;;;;;11.98;5.47;;;;;;;38.38;22.02;97676.19;5071056;28;20437;-72
2021/08/22 07:41:43;;;;;;;9.95;4.70;;;;;;;38.53;22.15;97672.63;5072090;28;20553;-73
2021/08/22 07:44:08;;;;;;;9.85;6.18;;;;;;;38.09;22.38;97671.16;5071209;28;20028;-72
2021/08/22 07:46:34;;;;;;;14.25;6.25;;;;;;;38.80;22.06;97661.34;5072120;28;20094;-74
2021/08/22 07:48:59;;;;;;;7.05;4.90;;;;;;;39.25;21.24;97663.53;5070856;28;20028;-72
2021/08/22 07:51:25;;;;;;;57.63;8.00;;;;;;;40.20;20.44;97670.41;5071003;28;20551;-72
2021/08/22 07:53:50;;;;;;;8.05;5.40;;;;;;;40.72;20.43;97668.13;5070542;28;20036;-72
2021/08/22 07:56:16;;;;;;;6.78;4.55;;;;;;;40.21;20.01;97667.31;5071865;28;20047;-71
2021/08/22 07:58:42;;;;;;;8.18;5.38;;;;;;;40.65;19.74;97667.56;5071740;28;20067;-72
2021/08/22 08:01:07;;;;;;;12.85;5.38;;;;;;;40.21;19.39;97666.50;5070709;28;20108;-72
2021/08/22 08:03:33;;;;;;;6.97;4.45;;;;;;;38.88;20.32;97656.09;5070428;28;20094;-73
2021/08/22 08:05:58;;;;;;;10.88;5.00;;;;;;;38.45;21.48;97653.59;5070418;28;20488;-74
2021/08/22 08:08:24;;;;;;;7.45;4.20;;;;;;;37.95;21.02;97660.47;5070436;28;20468;-72
2021/08/22 08:10:50;;;;;;;11.18;4.20;;;;;;;38.81;20.15;97655.47;5069993;28;20072;-73
2021/08/22 08:13:17;;;;;;;26.42;5.53;;;;;;;39.38;20.19;97648.97;5070447;28;20024;-72
2021/08/22 08:15:43;;;;;;;10.18;3.90;;;;;;;39.73;19.17;97642.63;5053445;28;20040;-73
2021/08/22 08:18:08;;;;;;;5.85;3.72;;;;;;;39.21;19.31;97646.41;5087155;28;20111;-75
2021/08/22 08:20:34;;;;;;;6.20;3.85;;;;;;;40.94;18.69;97654.59;5070236;28;20037;-73
2021/08/22 08:23:00;;;;;;;5.63;3.90;;;;;;;42.30;16.91;97644.44;5071151;28;20036;-74
2021/08/22 08:25:26;;;;;;;11.13;4.40;;;;;;;42.21;17.28;97645.41;5069841;28;20051;-73
2021/08/22 08:27:51;;;;;;;6.35;3.85;;;;;;;41.06;17.77;97635.44;5071270;28;20036;-73
2021/08/22 08:30:18;;;;;;;14.50;3.97;;;;;;;40.16;19.33;97644.06;5069783;28;20032;-72
2021/08/22 08:32:43;;;;;;;11.60;4.28;;;;;;;39.93;19.02;97643.47;5086766;28;20032;-73
2021/08/22 08:35:12;;;;;;;10.65;4.28;;;;;;;39.37;19.89;97638.91;5070158;28;20078;-74
2021/08/22 08:37:39;;;;;;;9.02;3.85;;;;;;;40.37;18.53;97640.09;5086580;28;20028;-73
2021/08/22 08:40:14;;;;;;;5.13;3.58;;;;;;;41.29;18.12;97641.47;5070902;28;20038;-73
2021/08/22 08:42:43;;;;;;;4.25;3.75;;;;;;;41.00;18.16;97630.13;5070085;28;20043;-73
2021/08/22 08:45:18;;;;;;;6.53;4.50;;;;;;;41.55;17.60;97632.66;5086717;28;20040;-73
2021/08/22 08:47:46;;;;;;;10.02;4.13;;;;;;;41.79;17.87;97637.56;5069887;28;20475;-74
2021/08/22 08:50:15;;;;;;;8.98;3.47;;;;;;;40.61;19.21;97629.97;5069895;28;20134;-73
2021/08/22 08:53:06;;;;;;;4.18;3.65;;;;;;;40.29;18.83;97626.66;5069750;28;20033;-73
2021/08/22 08:55:37;;;;;;;7.47;3.60;;;;;;;41.77;17.28;97629.44;5053086;28;20535;-73
2021/08/22 08:58:03;;;;;;;6.78;3.65;;;;;;;41.87;17.31;97618.09;5070822;28;20111;-73
2021/08/22 09:00:33;;;;;;;5.03;3.47;;;;;;;40.79;18.56;97617.28;5070076;28;20463;-73
2021/08/22 09:03:00;;;;;;;9.38;4.30;;;;;;;40.62;18.22;97616.78;5069372;28;20028;-73
2021/08/22 09:05:50;;;;;;;5.18;4.40;;;;;;;41.21;17.98;97616.81;5069715;28;20553;-73
2021/08/22 09:08:29;;;;;;;5.18;4.30;;;;;;;41.16;17.35;97611.25;5070902;28;20518;-73
2021/08/22 09:11:43;;;;;;;7.90;3.67;;;;;;;40.81;17.42;97607.44;5069350;28;20052;-73
2021/08/22 09:14:46;;;;;;;8.15;4.10;;;;;;;41.61;17.70;97608.16;5024152;28;20048;-72
2021/08/22 09:17:48;;;;;;;6.50;3.72;;;;;;;41.35;17.99;97615.09;5070769;28;20059;-73
2021/08/22 09:20:43;;;;;;;4.47;3.65;;;;;;;41.83;17.06;97608.59;5070858;28;20021;-73
2021/08/22 09:23:46;;;;;;;5.10;4.05;;;;;;;42.14;16.86;97607.19;5070824;28;20046;-74
2021/08/22 09:26:20;;;;;;;6.18;3.85;;;;;;;43.23;16.14;97601.72;5069444;28;20049;-72
2021/08/22 09:29:10;;;;;;;5.00;3.63;;;;;;;43.94;15.66;97597.81;5071161;28;20031;-73
2021/08/22 09:32:13;;;;;;;4.07;3.30;;;;;;;44.67;15.00;97597.94;5070755;28;20028;-73
2021/08/22 09:35:16;;;;;;;4.30;3.42;;;;;;;44.54;15.13;97590.28;5069476;28;20028;-73
2021/08/22 09:38:19;;;;;;;6.03;3.55;;;;;;;44.88;15.13;97592.69;5070836;28;20035;-73
2021/08/22 09:41:18;;;;;;;7.38;4.03;;;;;;;43.17;15.81;97583.19;5070982;28;20028;-73
2021/08/22 09:44:22;;;;;;;5.85;3.67;;;;;;;44.28;15.09;97589.06;5073386;28;20029;-73
2021/08/22 09:46:48;;;;;;;6.55;3.53;;;;;;;45.33;14.48;97582.41;5043433;28;20437;-73
2021/08/22 09:49:26;;;;;;;5.05;4.10;;;;;;;45.61;14.15;97584.00;5073124;28;20107;-73
2021/08/22 09:52:14;;;;;;;3.55;3.25;;;;;;;44.60;15.02;97583.38;5074466;28;20024;-73
2021/08/22 09:55:01;;;;;;;3.83;3.20;;;;;;;44.29;14.87;97571.84;5056689;28;20040;-73
2021/08/22 09:57:48;;;;;;;6.22;3.35;;;;;;;43.79;15.45;97570.72;5074440;28;20541;-73
2021/08/22 10:00:20;;;;;;;3.35;3.05;;;;;;;43.54;15.50;97571.97;5072991;28;20039;-74
2021/08/22 10:03:23;;;;;;;10.10;3.90;;;;;;;45.01;14.11;97564.44;5056276;28;20120;-74
2021/08/22 10:06:19;;;;;;;4.85;3.00;;;;;;;44.43;14.68;97563.34;5072966;28;20111;-74
2021/08/22 10:09:16;;;;;;;6.38;4.00;;;;;;;45.01;14.30;97558.78;5074343;28;20033;-74
2021/08/22 10:11:55;;;;;;;11.23;4.63;;;;;;;46.18;13.80;97568.97;5072801;28;20496;-74
2021/08/22 10:14:26;;;;;;;6.45;3.47;;;;;;;45.33;14.24;97559.78;5073839;28;20465;-74
2021/08/22 10:16:52;;;;;;;11.70;3.60;;;;;;;44.44;14.74;97556.56;5073111;28;20445;-74
2021/08/22 10:19:22;;;;;;;5.65;3.67;;;;;;;43.97;14.97;97558.56;5055851;28;20040;-72
2021/08/22 10:22:12;;;;;;;9.18;3.92;;;;;;;42.06;16.10;97547.88;5072692;28;20511;-73
2021/08/22 10:24:43;;;;;;;5.72;3.90;;;;;;;39.38;18.33;97553.75;5072266;28;20484;-76
2021/08/22 10:27:09;;;;;;;25.33;17.35;;;;;;;38.50;19.75;97556.56;5072042;28;20040;-75
2021/08/22 10:29:52;;;;;;;12.50;9.05;;;;;;;37.58;19.69;97552.56;5056717;28;20032;-74
2021/08/22 10:32:18;;;;;;;11.10;3.92;;;;;;;36.67;20.52;97548.81;5068904;28;20025;-73
2021/08/22 10:34:47;;;;;;;5.07;3.80;;;;;;;36.32;21.04;97546.38;5071304;28;20028;-75
2021/08/22 10:37:27;;;;;;;4.57;3.90;;;;;;;35.99;20.84;97550.06;5070521;28;20036;-74
2021/08/22 10:39:53;;;;;;;9.93;4.10;;;;;;;37.29;19.75;97554.78;5070350;28;20033;-73
2021/08/22 10:42:20;;;;;;;26.73;4.40;;;;;;;39.19;18.66;97541.41;5070100;28;20561;-74
2021/08/22 10:44:46;;;;;;;4.15;3.67;;;;;;;40.92;16.89;97540.84;5083745;28;20389;-76
2021/08/22 10:47:19;;;;;;;5.18;4.15;;;;;;;42.14;16.26;97539.66;5069993;28;20036;-75
2021/08/22 10:49:54;;;;;;;5.05;3.65;;;;;;;42.45;15.65;97543.00;5070473;28;20040;-74
2021/08/22 10:52:25;;;;;;;5.53;3.78;;;;;;;41.14;17.05;97532.88;5071725;28;20064;-75
2021/08/22 10:55:13;;;;;;;13.68;4.72;;;;;;;39.97;17.71;97529.66;5055130;28;20031;-75
2021/08/22 10:57:50;;;;;;;6.28;3.92;;;;;;;39.75;19.04;97534.72;5071529;28;20036;-74
2021/08/22 11:00:35;;;;;;;6.10;4.05;;;;;;;41.51;16.60;97533.19;5070295;28;20400;-74
2021/08/22 11:03:04;;;;;;;5.13;4.05;;;;;;;41.28;16.50;97524.66;5068255;28;20572;-73
2021/08/22 11:05:37;;;;;;;5.05;4.55;;;;;;;41.00;16.61;97523.44;5087068;28;20032;-74
2021/08/22 11:08:18;;;;;;;4.80;3.90;;;;;;;41.34;17.35;97529.09;5071081;28;20032;-73
2021/08/22 11:11:00;;;;;;;9.20;4.93;;;;;;;42.95;15.62;97521.78;5071164;28;20036;-73
2021/08/22 11:13:27;;;;;;;7.80;5.05;;;;;;;43.43;14.87;97511.25;5054182;28;20468;-74
2021/08/22 11:15:53;;;;;;;6.38;5.20;;;;;;;43.19;14.97;97504.88;5087883;28;20040;-74
2021/08/22 11:18:19;;;;;;;7.45;5.25;;;;;;;43.66;14.80;97509.44;5053016;28;20040;-73
2021/08/22 11:20:45;;;;;;;8.82;4.13;;;;;;;43.68;14.88;97501.53;5087754;28;20033;-74
2021/08/22 11:23:16;;;;;;;5.00;4.13;;;;;;;44.10;14.57;97512.63;5070955;28;20079;-73
2021/08/22 11:25:43;;;;;;;4.97;4.10;;;;;;;44.17;14.20;97506.59;5067207;28;20125;-73
2021/08/22 11:28:10;;;;;;;14.88;4.38;;;;;;;44.26;14.20;97507.53;5070250;28;20024;-73
2021/08/22 11:30:37;;;;;;;9.40;3.97;;;;;;;43.99;14.61;97502.69;5071121;28;20419;-73
2021/08/22 11:33:03;;;;;;;4.20;3.80;;;;;;;43.77;14.33;97499.72;5088009;28;20051;-74
2021/08/22 11:35:29;;;;;;;6.38;4.28;;;;;;;44.37;14.81;97510.97;5088057;28;20123;-74
2021/08/22 11:37:58;;;;;;;5.32;3.67;;;;;;;44.64;13.94;97499.72;5054103;28;20115;-74